Time;durP1;ratioP1;P1;durP2;ratioP2;P2;SDS_P1;SDS_P2;PMS_P1;PMS_P2;Temp;Humidity;BMP_temperature;BMP_pressure;BME280_temperature;BME280_humidity;BME280_pressure;Samples;Min_cycle;Max_cycle;Signal;HPM_P1;HPM_P2
2021/10/05 00:00:15;;;;;;;15.50;13.90;;;15.10;99.90;;;;;;5054954;28;20410;-57
2021/10/05 00:02:41;;;;;;;13.50;12.30;;;15.00;99.90;;;;;;5055036;28;20211;-58
2021/10/05 00:05:07;;;;;;;13.23;11.93;;;15.00;99.90;;;;;;5055423;28;20936;-58
2021/10/05 00:07:33;;;;;;;16.87;15.23;;;15.10;99.90;;;;;;5055487;28;20169;-58
2021/10/05 00:09:59;;;;;;;12.97;11.77;;;15.10;99.90;;;;;;5055137;28;20881;-57
2021/10/05 00:12:24;;;;;;;16.57;14.97;;;15.00;99.90;;;;;;5036233;28;20562;-57
2021/10/05 00:14:50;;;;;;;12.73;11.43;;;15.10;99.90;;;;;;5034662;28;20205;-58
2021/10/05 00:17:18;;;;;;;15.83;12.60;;;15.10;99.90;;;;;;5034976;28;20265;-56
2021/10/05 00:19:44;;;;;;;12.93;11.67;;;15.10;99.90;;;;;;5034826;28;20410;-56
2021/10/05 00:22:10;;;;;;;14.30;12.90;;;15.10;99.90;;;;;;5036681;28;20459;-57
2021/10/05 00:24:35;;;;;;;13.43;12.17;;;15.10;99.90;;;;;;5054645;28;20438;-58
2021/10/05 00:27:01;;;;;;;12.73;11.53;;;15.10;99.90;;;;;;5054869;28;20534;-58
2021/10/05 00:29:27;;;;;;;15.70;14.20;;;15.00;99.90;;;;;;5049669;28;20171;-56
2021/10/05 00:31:52;;;;;;;14.57;13.17;;;15.00;99.90;;;;;;5034624;28;20202;-58
2021/10/05 00:34:18;;;;;;;15.37;13.87;;;15.10;99.90;;;;;;5035325;28;20163;-57
2021/10/05 00:36:43;;;;;;;20.17;18.17;;;15.00;99.90;;;;;;5033497;28;20581;-58
2021/10/05 00:39:09;;;;;;;19.40;17.30;;;15.00;99.90;;;;;;5042538;28;20229;-58
2021/10/05 00:41:35;;;;;;;18.77;16.87;;;14.80;99.90;;;;;;5053970;28;20619;-58
2021/10/05 00:44:01;;;;;;;20.90;18.70;;;14.70;99.90;;;;;;5052525;28;20199;-58
2021/10/05 00:46:27;;;;;;;19.07;17.27;;;14.70;99.90;;;;;;5054131;28;20661;-57
2021/10/05 00:48:54;;;;;;;20.77;18.60;;;14.70;99.90;;;;;;5052709;28;20419;-55
2021/10/05 00:51:24;;;;;;;19.03;17.03;;;14.70;99.90;;;;;;5037393;28;20513;-58
2021/10/05 00:53:51;;;;;;;17.60;15.70;;;14.90;99.90;;;;;;5014784;28;20407;-58
2021/10/05 00:56:17;;;;;;;21.60;18.77;;;14.80;99.90;;;;;;5014783;28;20461;-58
2021/10/05 00:58:43;;;;;;;20.40;18.30;;;14.70;99.90;;;;;;5034356;28;20460;-58
2021/10/05 01:01:09;;;;;;;21.03;18.90;;;14.70;99.90;;;;;;5054046;28;20185;-58
2021/10/05 01:03:35;;;;;;;24.80;22.13;;;14.70;99.90;;;;;;5054304;28;20963;-55
2021/10/05 01:06:01;;;;;;;25.60;22.03;;;14.70;99.90;;;;;;5049036;28;20449;-57
2021/10/05 01:08:31;;;;;;;21.40;19.17;;;14.70;99.90;;;;;;5034005;28;20174;-58
2021/10/05 01:10:57;;;;;;;22.10;19.80;;;14.70;99.90;;;;;;5049117;28;20280;-57
2021/10/05 01:13:23;;;;;;;23.60;21.10;;;14.60;99.90;;;;;;5053884;28;20408;-58
2021/10/05 01:15:48;;;;;;;20.27;18.10;;;14.60;99.90;;;;;;5052239;28;20435;-56
2021/10/05 01:18:14;;;;;;;20.67;18.57;;;14.60;99.90;;;;;;5053785;28;20647;-58
2021/10/05 01:21:04;;;;;;;18.90;17.00;;;14.70;99.90;;;;;;5053964;28;20249;-57
2021/10/05 01:23:30;;;;;;;21.53;18.30;;;14.80;99.90;;;;;;5052021;28;20190;-58
2021/10/05 01:25:55;;;;;;;17.90;16.10;;;14.60;99.90;;;;;;5054213;28;20456;-57
2021/10/05 01:28:23;;;;;;;19.63;17.60;;;14.60;99.90;;;;;;5053551;28;20410;-56
2021/10/05 01:30:49;;;;;;;19.47;17.47;;;14.70;99.90;;;;;;5052038;28;20202;-58
2021/10/05 01:33:16;;;;;;;19.23;16.83;;;14.80;99.90;;;;;;5053816;28;20859;-57
2021/10/05 01:35:42;;;;;;;20.80;18.77;;;14.80;99.90;;;;;;5053705;28;20237;-57
2021/10/05 01:38:07;;;;;;;24.50;22.00;;;14.90;99.90;;;;;;5053497;28;20406;-58
2021/10/05 01:40:33;;;;;;;21.33;19.00;;;14.90;99.90;;;;;;5051618;28;20184;-57
2021/10/05 01:42:59;;;;;;;22.50;17.47;;;14.80;99.90;;;;;;5053300;28;20168;-56
2021/10/05 01:45:24;;;;;;;22.70;19.70;;;14.80;99.90;;;;;;5053419;28;20166;-58
2021/10/05 01:47:50;;;;;;;21.57;18.90;;;14.70;99.90;;;;;;5051415;28;20182;-57
2021/10/05 01:50:18;;;;;;;24.20;21.60;;;14.50;99.90;;;;;;5053492;28;20197;-56
2021/10/05 01:52:44;;;;;;;21.23;18.27;;;14.60;99.90;;;;;;5053244;28;20255;-57
2021/10/05 01:55:09;;;;;;;20.97;18.77;;;14.50;99.90;;;;;;5053214;28;20402;-58
2021/10/05 01:57:35;;;;;;;20.20;18.10;;;14.50;99.90;;;;;;5053423;28;20650;-57
2021/10/05 02:00:01;;;;;;;20.10;18.00;;;14.60;99.90;;;;;;5051880;28;20183;-57
2021/10/05 02:02:26;;;;;;;21.90;19.23;;;14.70;99.90;;;;;;5052884;28;20196;-55
2021/10/05 02:04:52;;;;;;;20.20;18.10;;;14.60;99.90;;;;;;5051391;28;20672;-58
2021/10/05 02:07:18;;;;;;;23.43;20.03;;;14.60;99.90;;;;;;5037360;28;20171;-58
2021/10/05 02:09:50;;;;;;;22.03;18.80;;;14.70;99.90;;;;;;5039696;28;20179;-57
2021/10/05 02:12:16;;;;;;;21.00;18.80;;;14.80;99.90;;;;;;5053198;28;20692;-57
2021/10/05 02:14:44;;;;;;;27.00;22.97;;;14.80;99.90;;;;;;5053342;28;20412;-58
2021/10/05 02:17:09;;;;;;;21.03;18.83;;;14.80;99.90;;;;;;5052168;28;20430;-55
2021/10/05 02:19:36;;;;;;;21.60;19.30;;;14.80;99.90;;;;;;5053274;28;20779;-56
2021/10/05 02:22:02;;;;;;;19.40;17.30;;;14.80;99.90;;;;;;5051792;28;20200;-57
2021/10/05 02:26:56;;;;;;;20.43;18.27;;;14.80;99.90;;;;;;5053482;28;20650;-56
2021/10/05 02:29:22;;;;;;;21.23;18.93;;;14.80;99.90;;;;;;5052961;28;20162;-57
2021/10/05 02:31:49;;;;;;;21.93;19.40;;;14.80;99.90;;;;;;5089568;22;20482;-56
2021/10/05 02:34:15;;;;;;;20.50;17.67;;;14.80;99.90;;;;;;5050928;28;20999;-57
2021/10/05 02:36:42;;;;;;;27.77;24.00;;;14.90;99.90;;;;;;5049965;28;20423;-55
2021/10/05 02:39:09;;;;;;;28.10;24.60;;;14.80;99.90;;;;;;5051490;28;20426;-53
2021/10/05 02:41:35;;;;;;;21.67;18.47;;;14.70;99.90;;;;;;5051536;28;20433;-54
2021/10/05 02:44:01;;;;;;;19.77;17.67;;;14.60;99.90;;;;;;5051243;28;20487;-55
2021/10/05 02:46:27;;;;;;;22.60;19.60;;;14.70;99.90;;;;;;5043686;28;20418;-54
2021/10/05 02:48:53;;;;;;;24.00;21.43;;;14.80;99.90;;;;;;5013034;28;20409;-53
2021/10/05 02:51:19;;;;;;;23.10;20.40;;;14.80;99.90;;;;;;5013079;28;20534;-58
2021/10/05 02:53:45;;;;;;;23.30;20.80;;;14.80;99.90;;;;;;5050321;28;20793;-54
2021/10/05 02:56:10;;;;;;;22.67;19.93;;;14.80;99.90;;;;;;5052779;28;20443;-53
2021/10/05 02:58:36;;;;;;;21.00;18.10;;;14.70;99.90;;;;;;5051331;28;20529;-52
2021/10/05 03:01:02;;;;;;;24.37;21.80;;;14.70;99.90;;;;;;5056242;28;20177;-57
2021/10/05 03:03:27;;;;;;;20.53;18.43;;;14.60;99.90;;;;;;5054951;28;20184;-56
2021/10/05 03:05:53;;;;;;;22.23;19.03;;;14.60;99.90;;;;;;5034133;28;20232;-57
2021/10/05 03:08:19;;;;;;;26.60;21.83;;;14.60;99.90;;;;;;5035624;28;20171;-55
2021/10/05 03:10:44;;;;;;;22.03;19.67;;;14.60;99.90;;;;;;5035379;28;20196;-57
2021/10/05 03:13:10;;;;;;;24.90;21.10;;;14.60;99.90;;;;;;5035825;28;20685;-56
2021/10/05 03:15:35;;;;;;;18.70;16.67;;;14.60;99.90;;;;;;5035915;28;20231;-55
2021/10/05 03:18:01;;;;;;;19.00;17.00;;;14.70;99.90;;;;;;5049369;28;20264;-57
2021/10/05 03:20:26;;;;;;;19.47;17.37;;;14.70;99.90;;;;;;5055860;28;20167;-57
2021/10/05 03:22:52;;;;;;;27.60;21.97;;;14.80;99.90;;;;;;5043906;28;20202;-54
2021/10/05 03:25:18;;;;;;;20.07;17.93;;;14.90;99.90;;;;;;5035720;28;20232;-52
2021/10/05 03:27:44;;;;;;;20.60;18.50;;;14.80;99.90;;;;;;5036034;28;20403;-58
2021/10/05 03:30:10;;;;;;;18.17;16.10;;;14.90;99.90;;;;;;5055231;28;20251;-55
2021/10/05 03:32:36;;;;;;;19.77;17.33;;;14.90;99.90;;;;;;5045154;28;20215;-55
2021/10/05 03:35:02;;;;;;;18.23;15.97;;;14.80;99.90;;;;;;5032315;28;20514;-54
2021/10/05 03:37:28;;;;;;;21.13;17.97;;;14.60;99.90;;;;;;5035358;28;20424;-56
2021/10/05 03:39:53;;;;;;;21.53;17.00;;;14.50;99.90;;;;;;5044992;28;20431;-56
2021/10/05 03:42:19;;;;;;;17.27;15.23;;;14.40;99.90;;;;;;5039052;28;20275;-56
2021/10/05 03:44:44;;;;;;;16.63;14.53;;;14.50;99.90;;;;;;5035985;28;20241;-51
2021/10/05 03:47:10;;;;;;;16.93;15.13;;;14.60;99.90;;;;;;5045026;28;20544;-56
2021/10/05 03:49:37;;;;;;;16.70;14.17;;;14.60;99.90;;;;;;5055206;28;20185;-56
2021/10/05 03:52:03;;;;;;;19.57;16.50;;;14.70;99.90;;;;;;5055840;28;20224;-55
2021/10/05 03:54:28;;;;;;;16.10;14.50;;;14.70;99.90;;;;;;5052323;28;20429;-56
2021/10/05 03:56:54;;;;;;;17.00;15.20;;;14.70;99.90;;;;;;5054981;28;20459;-56
2021/10/05 03:59:20;;;;;;;16.33;14.50;;;14.80;99.90;;;;;;5053607;28;20255;-57
2021/10/05 04:01:46;;;;;;;29.27;26.27;;;14.80;99.90;;;;;;5055115;28;20209;-56
2021/10/05 04:04:13;;;;;;;17.57;14.67;;;14.80;99.90;;;;;;5054939;28;20504;-53
2021/10/05 04:06:40;;;;;;;15.77;14.07;;;14.80;99.90;;;;;;5055173;28;20776;-55
2021/10/05 04:09:06;;;;;;;15.70;14.10;;;14.80;99.90;;;;;;5053381;28;20424;-55
2021/10/05 04:11:35;;;;;;;14.33;12.83;;;14.80;99.90;;;;;;5054131;28;20559;-53
2021/10/05 04:14:02;;;;;;;16.63;14.67;;;14.70;99.90;;;;;;5054676;28;20405;-57
2021/10/05 04:16:27;;;;;;;14.90;13.30;;;14.60;99.90;;;;;;5054779;28;20403;-56
2021/10/05 04:18:53;;;;;;;15.37;13.30;;;14.60;99.90;;;;;;5054459;28;20440;-56
2021/10/05 04:21:19;;;;;;;15.90;14.23;;;14.70;99.90;;;;;;5052736;28;20267;-55
2021/10/05 04:23:45;;;;;;;28.13;25.50;;;14.80;99.90;;;;;;5054236;28;20670;-50
2021/10/05 04:26:11;;;;;;;25.20;22.80;;;14.80;99.90;;;;;;5054518;28;20174;-52
2021/10/05 04:28:36;;;;;;;20.67;18.67;;;14.80;99.90;;;;;;5054257;28;20502;-55
2021/10/05 04:31:02;;;;;;;17.03;14.97;;;14.90;99.90;;;;;;5037640;28;20474;-56
2021/10/05 04:33:28;;;;;;;19.60;17.77;;;14.90;99.90;;;;;;5034211;28;20261;-57
2021/10/05 04:35:54;;;;;;;14.57;13.07;;;14.90;99.90;;;;;;5033767;28;20416;-52
2021/10/05 04:38:19;;;;;;;13.87;12.13;;;14.90;99.90;;;;;;5034123;28;20618;-57
2021/10/05 04:40:45;;;;;;;19.40;15.20;;;14.90;99.90;;;;;;5034107;28;20227;-53
2021/10/05 04:43:10;;;;;;;16.70;15.00;;;14.90;99.90;;;;;;5051280;28;20205;-57
2021/10/05 04:45:36;;;;;;;14.90;13.40;;;14.90;99.90;;;;;;5054251;28;20588;-56
2021/10/05 04:48:06;;;;;;;13.83;12.43;;;14.80;99.90;;;;;;5054189;28;20173;-57
2021/10/05 04:50:32;;;;;;;14.50;12.30;;;14.70;99.90;;;;;;5053751;28;20300;-55
2021/10/05 04:52:58;;;;;;;14.37;12.80;;;14.70;99.90;;;;;;5050604;28;20467;-55
2021/10/05 04:55:25;;;;;;;11.57;9.60;;;14.50;99.90;;;;;;5015460;28;20419;-55
2021/10/05 04:57:50;;;;;;;12.53;10.93;;;14.50;99.90;;;;;;5013812;28;20249;-55
2021/10/05 05:00:16;;;;;;;11.70;10.50;;;14.50;99.90;;;;;;5049427;28;20509;-56
2021/10/05 05:02:42;;;;;;;15.07;13.47;;;14.70;99.90;;;;;;5053470;28;20189;-55
2021/10/05 05:05:08;;;;;;;11.90;10.70;;;14.70;99.90;;;;;;5054013;28;20285;-56
2021/10/05 05:07:33;;;;;;;14.50;10.60;;;14.70;99.90;;;;;;5051793;28;20672;-54
2021/10/05 05:10:00;;;;;;;11.90;10.60;;;14.80;99.90;;;;;;5053788;28;20411;-56
2021/10/05 05:12:25;;;;;;;11.93;10.73;;;14.80;99.90;;;;;;5053384;28;20184;-55
2021/10/05 05:14:51;;;;;;;13.40;12.00;;;14.80;99.90;;;;;;5052059;28;20422;-57
2021/10/05 05:17:17;;;;;;;12.20;10.93;;;14.70;99.90;;;;;;5053253;28;20173;-54
2021/10/05 05:19:42;;;;;;;12.57;11.30;;;14.70;99.90;;;;;;5053423;28;20176;-53
2021/10/05 05:22:08;;;;;;;12.50;11.20;;;14.80;99.90;;;;;;5052534;28;20272;-56
2021/10/05 05:24:33;;;;;;;12.40;11.10;;;14.90;99.90;;;;;;5051616;28;20559;-57
2021/10/05 05:26:59;;;;;;;14.43;12.93;;;14.90;99.90;;;;;;5053085;28;20178;-55
2021/10/05 05:29:25;;;;;;;13.30;11.13;;;14.80;99.90;;;;;;5049768;28;20598;-55
2021/10/05 05:31:52;;;;;;;11.80;10.60;;;14.90;99.90;;;;;;5036429;28;20228;-54
2021/10/05 05:34:19;;;;;;;11.40;10.30;;;14.90;99.90;;;;;;5053373;28;20707;-52
2021/10/05 05:36:45;;;;;;;15.87;12.83;;;14.90;99.90;;;;;;5052182;28;20932;-57
2021/10/05 05:39:11;;;;;;;17.83;13.30;;;14.90;99.90;;;;;;5052298;28;20427;-57
2021/10/05 05:41:36;;;;;;;13.60;11.47;;;14.90;99.90;;;;;;5051770;28;20205;-53
2021/10/05 05:44:02;;;;;;;11.40;10.13;;;14.90;99.90;;;;;;5053081;28;20662;-53
2021/10/05 05:46:27;;;;;;;11.40;10.30;;;14.90;99.90;;;;;;5052864;28;20169;-53
2021/10/05 05:48:53;;;;;;;13.10;11.70;;;15.00;99.90;;;;;;5052709;28;20254;-52
2021/10/05 05:51:19;;;;;;;11.60;10.40;;;15.00;99.90;;;;;;5052792;28;20185;-56
2021/10/05 05:53:45;;;;;;;11.10;9.90;;;15.00;99.90;;;;;;5050941;28;20180;-56
2021/10/05 05:56:11;;;;;;;11.70;10.50;;;15.00;99.90;;;;;;5052836;28;20521;-57
2021/10/05 05:58:36;;;;;;;11.90;10.70;;;15.00;99.90;;;;;;5052728;28;20892;-59
2021/10/05 06:01:02;;;;;;;11.03;9.93;;;15.00;99.90;;;;;;5049702;28;20450;-54
2021/10/05 06:03:28;;;;;;;11.70;10.50;;;15.00;99.90;;;;;;5052729;28;20198;-55
2021/10/05 06:05:54;;;;;;;11.10;9.90;;;15.00;99.90;;;;;;5052866;28;20929;-55
2021/10/05 06:08:19;;;;;;;14.97;13.03;;;15.00;99.90;;;;;;5052791;28;20182;-52
2021/10/05 06:10:45;;;;;;;12.57;11.37;;;15.00;99.90;;;;;;5051984;28;20246;-55
2021/10/05 06:13:11;;;;;;;11.23;9.90;;;15.00;99.90;;;;;;5052398;28;20196;-51
2021/10/05 06:15:37;;;;;;;14.23;11.90;;;14.80;99.90;;;;;;5052199;28;20410;-57
2021/10/05 06:18:03;;;;;;;12.90;11.40;;;14.70;99.90;;;;;;5051051;28;20226;-58
2021/10/05 06:20:29;;;;;;;11.60;10.00;;;14.70;99.90;;;;;;5052950;28;20462;-57
2021/10/05 06:22:55;;;;;;;10.60;9.50;;;14.80;99.90;;;;;;5052394;28;20201;-51
2021/10/05 06:25:23;;;;;;;12.53;9.53;;;14.80;99.90;;;;;;5051432;28;20943;-53
2021/10/05 06:27:50;;;;;;;10.17;9.07;;;14.90;99.90;;;;;;5043539;28;20257;-51
2021/10/05 06:30:16;;;;;;;12.00;10.70;;;14.80;99.90;;;;;;5032726;28;20505;-52
2021/10/05 06:32:44;;;;;;;10.23;9.20;;;15.00;99.90;;;;;;5042025;28;20466;-53
2021/10/05 06:35:10;;;;;;;11.57;9.93;;;15.10;99.90;;;;;;5040158;28;20425;-57
2021/10/05 06:37:37;;;;;;;9.80;8.80;;;15.20;99.90;;;;;;5037116;28;20424;-56
2021/10/05 06:40:04;;;;;;;10.57;9.47;;;15.10;99.90;;;;;;5056122;28;20414;-57
2021/10/05 06:42:35;;;;;;;10.03;8.07;;;15.20;99.90;;;;;;5056015;28;20440;-56
2021/10/05 06:45:02;;;;;;;9.80;8.80;;;15.20;99.90;;;;;;5056075;28;20783;-55
2021/10/05 06:47:28;;;;;;;12.17;10.00;;;15.10;99.90;;;;;;5038588;28;20436;-54
2021/10/05 06:49:54;;;;;;;11.73;9.90;;;15.30;99.90;;;;;;5050474;28;20561;-56
2021/10/05 06:52:19;;;;;;;13.43;8.27;;;15.30;99.90;;;;;;5056520;28;20201;-56
2021/10/05 06:54:45;;;;;;;11.00;9.33;;;15.20;99.90;;;;;;5054385;28;20940;-55
2021/10/05 06:57:11;;;;;;;9.87;8.80;;;15.20;99.90;;;;;;5033416;28;20578;-57
2021/10/05 06:59:36;;;;;;;10.17;8.90;;;15.30;99.90;;;;;;5024203;28;20526;-55
2021/10/05 07:02:02;;;;;;;10.23;8.87;;;15.30;99.90;;;;;;5056097;28;20197;-57
2021/10/05 07:04:28;;;;;;;8.90;8.00;;;15.50;99.90;;;;;;5056271;28;20197;-55
2021/10/05 07:06:53;;;;;;;8.63;7.10;;;15.50;99.90;;;;;;5056381;28;20261;-57
2021/10/05 07:09:19;;;;;;;8.27;7.47;;;15.50;99.90;;;;;;5054328;28;20643;-57
2021/10/05 07:11:46;;;;;;;8.83;7.10;;;15.50;99.90;;;;;;5056194;28;20189;-57
2021/10/05 07:14:12;;;;;;;8.47;7.67;;;15.30;99.90;;;;;;5056335;28;20247;-55
2021/10/05 07:16:37;;;;;;;8.90;7.13;;;15.50;99.90;;;;;;5056292;28;20880;-55
2021/10/05 07:19:03;;;;;;;8.13;7.07;;;15.60;99.90;;;;;;5055202;28;20580;-57
2021/10/05 07:21:29;;;;;;;8.20;7.40;;;15.70;99.90;;;;;;5054526;28;20300;-55
2021/10/05 07:23:54;;;;;;;7.47;6.70;;;15.80;99.90;;;;;;5038948;28;20677;-53
2021/10/05 07:26:20;;;;;;;7.83;6.57;;;15.90;99.90;;;;;;5036085;28;20248;-56
2021/10/05 07:28:46;;;;;;;7.47;6.67;;;16.00;99.90;;;;;;5035885;28;20185;-56
2021/10/05 07:31:12;;;;;;;7.30;6.60;;;16.10;99.90;;;;;;5035948;28;20652;-56
2021/10/05 07:33:38;;;;;;;6.50;5.67;;;16.20;99.90;;;;;;5055691;28;20531;-56
2021/10/05 07:36:04;;;;;;;7.43;6.73;;;16.30;99.90;;;;;;5055584;28;20415;-57
2021/10/05 07:38:30;;;;;;;6.53;5.90;;;16.40;99.90;;;;;;5054117;28;20692;-57
2021/10/05 07:40:55;;;;;;;8.43;6.30;;;16.50;99.90;;;;;;5055488;28;20642;-57
2021/10/05 07:43:21;;;;;;;7.20;6.50;;;16.50;99.90;;;;;;5055482;28;20943;-57
2021/10/05 07:45:48;;;;;;;6.73;6.03;;;16.50;99.90;;;;;;5053207;28;20216;-54
2021/10/05 07:48:14;;;;;;;10.13;8.00;;;16.40;99.90;;;;;;5053454;28;20368;-52
2021/10/05 07:50:40;;;;;;;8.93;7.90;;;16.40;99.90;;;;;;5055252;28;20436;-51
2021/10/05 07:53:06;;;;;;;6.80;6.10;;;16.40;99.90;;;;;;5055075;28;20421;-57
2021/10/05 07:55:32;;;;;;;7.40;6.70;;;16.30;99.90;;;;;;5055230;28;20413;-52
2021/10/05 07:57:59;;;;;;;8.33;6.30;;;16.30;99.90;;;;;;5053477;28;20457;-53
2021/10/05 08:00:25;;;;;;;7.23;6.47;;;16.00;99.90;;;;;;5055127;28;20488;-56
2021/10/05 08:02:51;;;;;;;7.90;7.00;;;15.80;99.90;;;;;;5054033;28;20455;-52
2021/10/05 08:05:17;;;;;;;7.03;6.33;;;16.00;99.90;;;;;;5055671;28;20456;-51
2021/10/05 08:07:43;;;;;;;8.60;7.57;;;16.20;99.90;;;;;;5054490;28;20189;-54
2021/10/05 08:10:09;;;;;;;8.07;6.90;;;16.30;99.90;;;;;;5055051;28;20480;-52
2021/10/05 08:12:35;;;;;;;7.20;6.50;;;16.30;99.90;;;;;;5054492;28;20436;-51
2021/10/05 08:15:01;;;;;;;8.23;7.50;;;16.30;99.90;;;;;;5055390;28;20436;-56
2021/10/05 08:17:28;;;;;;;7.53;6.73;;;16.30;99.90;;;;;;5053131;28;20228;-54
2021/10/05 08:19:54;;;;;;;10.30;7.63;;;16.20;99.90;;;;;;5054906;28;20919;-56
2021/10/05 08:22:20;;;;;;;8.37;7.57;;;16.20;99.90;;;;;;5050548;28;20200;-56
2021/10/05 08:24:46;;;;;;;9.40;8.27;;;16.10;99.90;;;;;;5046196;28;20989;-55
2021/10/05 08:27:12;;;;;;;9.70;8.20;;;16.20;99.90;;;;;;5054879;28;20493;-55
2021/10/05 08:29:39;;;;;;;10.17;8.53;;;16.00;99.90;;;;;;5054667;28;20213;-56
2021/10/05 08:32:06;;;;;;;9.73;8.70;;;16.00;99.90;;;;;;5077063;22;20577;-56
2021/10/05 08:34:32;;;;;;;9.90;8.90;;;16.10;99.90;;;;;;5053141;28;20415;-57
2021/10/05 08:36:57;;;;;;;9.70;8.37;;;16.40;99.90;;;;;;5053823;28;20398;-57
2021/10/05 08:39:23;;;;;;;7.83;7.03;;;16.60;99.90;;;;;;5053714;28;20173;-57
2021/10/05 08:41:49;;;;;;;8.00;7.20;;;16.70;99.90;;;;;;5052810;28;20555;-56
2021/10/05 08:44:15;;;;;;;7.10;6.37;;;16.50;99.90;;;;;;5053833;28;20201;-56
2021/10/05 08:46:41;;;;;;;7.80;6.30;;;16.70;99.90;;;;;;5054025;28;20178;-56
2021/10/05 08:49:07;;;;;;;7.03;6.00;;;16.90;99.90;;;;;;5053078;28;20929;-57
2021/10/05 08:51:34;;;;;;;7.17;6.47;;;17.10;99.90;;;;;;5053951;28;20408;-58
2021/10/05 08:54:00;;;;;;;7.80;6.13;;;17.20;99.90;;;;;;5053943;28;20796;-56
2021/10/05 08:56:25;;;;;;;6.07;5.47;;;16.70;99.90;;;;;;5053280;28;20408;-57
2021/10/05 08:58:51;;;;;;;5.40;4.93;;;16.60;99.90;;;;;;5052369;28;20216;-57
2021/10/05 09:01:17;;;;;;;5.80;5.27;;;16.70;99.90;;;;;;5054421;28;20181;-57
2021/10/05 09:03:54;;;;;;;4.87;4.40;;;16.90;99.90;;;;;;5042589;28;20298;-57
2021/10/05 09:06:22;;;;;;;4.67;4.27;;;16.60;99.90;;;;;;5014338;28;20502;-58
2021/10/05 09:08:49;;;;;;;5.40;4.93;;;16.90;99.90;;;;;;5013926;28;20407;-56
2021/10/05 09:11:18;;;;;;;4.20;3.70;;;16.80;99.90;;;;;;5053146;28;20405;-58
2021/10/05 09:13:51;;;;;;;3.87;3.57;;;16.70;99.90;;;;;;5053765;28;20477;-55
2021/10/05 09:16:28;;;;;;;4.30;3.90;;;16.80;99.90;;;;;;5053951;28;20389;-53
2021/10/05 09:19:08;;;;;;;4.40;3.97;;;16.90;99.90;;;;;;5053690;28;20422;-58
2021/10/05 09:21:38;;;;;;;4.23;3.83;;;17.00;99.90;;;;;;5036612;28;20413;-55
2021/10/05 09:24:05;;;;;;;4.47;4.07;;;17.10;99.90;;;;;;5040042;28;20457;-58
2021/10/05 09:26:54;;;;;;;5.10;4.60;;;17.20;99.90;;;;;;5048717;28;20891;-57
2021/10/05 09:29:23;;;;;;;4.30;3.90;;;17.30;99.90;;;;;;5033748;28;20402;-58
2021/10/05 09:32:05;;;;;;;4.13;3.73;;;17.50;99.90;;;;;;5049340;28;20426;-58
2021/10/05 09:34:35;;;;;;;4.80;4.40;;;17.70;99.90;;;;;;5053185;28;20382;-58
2021/10/05 09:37:10;;;;;;;5.10;4.60;;;17.50;99.90;;;;;;5053428;28;20805;-57
2021/10/05 09:39:42;;;;;;;4.17;3.77;;;17.60;99.90;;;;;;5040698;28;20414;-56
2021/10/05 09:42:09;;;;;;;4.93;3.93;;;17.80;99.90;;;;;;5034052;28;20455;-57
2021/10/05 09:44:34;;;;;;;4.73;4.30;;;17.80;99.90;;;;;;5052410;28;20448;-57
2021/10/05 09:47:00;;;;;;;6.10;4.67;;;17.50;99.90;;;;;;5052168;28;20412;-53
2021/10/05 09:49:26;;;;;;;5.90;5.23;;;17.60;99.90;;;;;;5052038;28;20192;-57
2021/10/05 09:51:59;;;;;;;4.27;3.87;;;17.60;99.90;;;;;;5053117;28;20169;-56
2021/10/05 09:54:26;;;;;;;4.90;4.43;;;17.50;99.90;;;;;;5052178;28;20650;-57
2021/10/05 09:56:52;;;;;;;5.20;4.70;;;17.50;99.90;;;;;;5030161;28;20486;-56
2021/10/05 09:59:18;;;;;;;5.27;4.77;;;17.90;99.90;;;;;;5033545;28;20406;-56
2021/10/05 10:01:43;;;;;;;6.03;5.43;;;18.30;99.90;;;;;;5038566;28;20421;-55
2021/10/05 10:04:09;;;;;;;4.53;4.10;;;18.50;99.90;;;;;;5033441;28;20205;-55
2021/10/05 10:06:42;;;;;;;5.20;4.70;;;18.80;99.90;;;;;;5033036;28;20508;-55
2021/10/05 10:09:09;;;;;;;4.17;3.77;;;18.20;99.90;;;;;;5038979;28;20417;-58
2021/10/05 10:11:34;;;;;;;4.60;4.17;;;18.30;99.90;;;;;;5039699;28;20398;-57
2021/10/05 10:14:01;;;;;;;4.03;3.73;;;18.10;99.90;;;;;;5043152;28;20428;-57
2021/10/05 10:16:27;;;;;;;5.03;4.53;;;18.10;99.90;;;;;;5038518;28;20171;-55
2021/10/05 10:18:58;;;;;;;4.20;3.90;;;17.80;99.90;;;;;;5046697;28;20420;-56
2021/10/05 10:21:30;;;;;;;3.40;3.10;;;17.60;99.90;;;;;;5059869;28;20173;-56
2021/10/05 10:24:09;;;;;;;3.73;3.43;;;17.70;99.90;;;;;;5058079;28;20506;-56
2021/10/05 10:26:36;;;;;;;5.37;3.67;;;17.70;99.90;;;;;;5074925;28;20401;-56
2021/10/05 10:29:03;;;;;;;3.80;3.47;;;18.00;99.90;;;;;;5059723;28;20405;-56
2021/10/05 10:31:36;;;;;;;3.63;3.33;;;18.00;99.90;;;;;;5059414;28;20397;-54
2021/10/05 10:34:03;;;;;;;3.97;3.67;;;18.00;99.90;;;;;;5057647;28;20633;-56
2021/10/05 10:36:40;;;;;;;3.20;2.90;;;18.30;99.90;;;;;;5059684;28;20734;-57
2021/10/05 10:39:09;;;;;;;3.50;2.97;;;18.20;99.90;;;;;;5057903;28;20437;-57
2021/10/05 10:41:42;;;;;;;3.23;2.93;;;18.10;99.90;;;;;;5059206;28;20898;-55
2021/10/05 10:44:11;;;;;;;2.80;2.60;;;18.20;99.90;;;;;;5059374;28;21000;-56
2021/10/05 10:46:38;;;;;;;2.80;2.60;;;18.40;99.90;;;;;;5060003;28;20920;-57
2021/10/05 10:49:13;;;;;;;3.03;2.80;;;18.70;99.90;;;;;;5059308;28;20446;-55
2021/10/05 10:51:44;;;;;;;3.33;3.03;;;18.90;99.90;;;;;;5039286;28;20384;-56
2021/10/05 10:54:12;;;;;;;3.40;2.80;;;19.40;99.90;;;;;;5041139;28;20494;-54
2021/10/05 10:56:38;;;;;;;3.70;3.40;;;19.40;99.90;;;;;;5059158;28;20412;-56
2021/10/05 10:59:06;;;;;;;2.87;2.60;;;18.90;99.90;;;;;;5059137;28;20907;-56
2021/10/05 11:01:42;;;;;;;3.20;3.00;;;18.50;99.90;;;;;;5057529;28;20179;-57
2021/10/05 11:04:09;;;;;;;2.70;2.33;;;18.50;99.90;;;;;;5059002;28;20475;-57
2021/10/05 11:06:36;;;;;;;2.67;2.47;;;18.30;99.90;;;;;;5058959;28;20427;-57
2021/10/05 11:09:03;;;;;;;2.63;2.43;;;18.10;99.90;;;;;;5035482;28;20416;-57
2021/10/05 11:11:34;;;;;;;3.80;2.57;;;18.00;99.90;;;;;;5032037;28;20412;-57
2021/10/05 11:14:02;;;;;;;2.90;2.63;;;17.90;99.90;;;;;;5059066;28;20408;-58
2021/10/05 11:16:29;;;;;;;4.10;2.20;;;18.00;99.90;;;;;;5058779;28;20808;-56
2021/10/05 11:19:16;;;;;;;1.97;1.40;;;18.00;99.90;;;;;;5057104;28;20478;-57
2021/10/05 11:21:47;;;;;;;1.50;1.40;;;18.40;99.90;;;;;;5056084;28;20824;-57
2021/10/05 11:24:15;;;;;;;4.30;1.77;;;18.60;99.90;;;;;;5055769;28;20833;-55
2021/10/05 11:26:51;;;;;;;1.70;1.53;;;18.60;99.90;;;;;;5054030;28;20478;-55
2021/10/05 11:29:28;;;;;;;1.60;1.23;;;18.80;99.90;;;;;;5056354;28;20430;-56
2021/10/05 11:31:58;;;;;;;1.63;1.53;;;18.60;99.90;;;;;;5054016;28;20839;-56
2021/10/05 11:34:25;;;;;;;2.20;1.30;;;18.50;99.90;;;;;;5057412;28;20389;-57
2021/10/05 11:36:51;;;;;;;4.70;1.80;;;18.70;99.90;;;;;;5055944;28;20405;-55
2021/10/05 11:39:23;;;;;;;1.80;1.50;;;19.10;99.90;;;;;;5054549;28;20778;-54
2021/10/05 11:41:52;;;;;;;1.77;1.50;;;20.10;99.90;;;;;;5055964;28;20393;-54
2021/10/05 11:44:20;;;;;;;1.43;1.33;;;20.00;99.90;;;;;;5055455;28;20459;-53
2021/10/05 11:47:01;;;;;;;3.93;1.70;;;19.40;99.90;;;;;;5056417;28;20486;-56
2021/10/05 11:49:32;;;;;;;1.70;1.60;;;19.30;99.90;;;;;;5052746;28;20481;-57
2021/10/05 11:51:59;;;;;;;2.83;1.60;;;19.30;99.90;;;;;;5036573;28;20427;-55
2021/10/05 11:54:30;;;;;;;1.67;1.37;;;19.20;99.90;;;;;;5046202;28;20944;-56
2021/10/05 11:56:59;;;;;;;2.30;1.47;;;19.00;99.90;;;;;;5056620;28;20399;-55
2021/10/05 11:59:30;;;;;;;1.63;1.43;;;19.00;99.90;;;;;;5055105;28;20425;-56
2021/10/05 12:02:02;;;;;;;2.40;1.50;;;18.90;99.90;;;;;;5055690;28;20425;-55
2021/10/05 12:04:28;;;;;;;1.43;1.33;;;19.00;99.90;;;;;;5056587;28;20448;-57
2021/10/05 12:07:03;;;;;;;1.40;1.30;;;18.90;99.90;;;;;;5056192;28;20436;-56
2021/10/05 12:09:31;;;;;;;1.97;1.20;;;19.10;99.90;;;;;;5056970;28;20412;-56
2021/10/05 12:12:18;;;;;;;1.40;1.30;;;19.10;99.90;;;;;;5056469;28;20417;-53
2021/10/05 12:15:20;;;;;;;1.90;1.37;;;19.40;99.90;;;;;;5057461;28;20394;-55
2021/10/05 12:17:58;;;;;;;1.30;0.87;;;19.50;99.90;;;;;;5032754;28;20432;-55
2021/10/05 12:20:24;;;;;;;1.10;0.97;;;19.50;99.90;;;;;;5057398;28;20506;-56
2021/10/05 12:22:50;;;;;;;2.03;1.07;;;19.50;99.90;;;;;;5055650;28;20591;-54
2021/10/05 12:25:19;;;;;;;1.97;1.30;;;19.90;99.90;;;;;;5055651;28;20626;-57
2021/10/05 12:27:47;;;;;;;1.53;1.07;;;20.20;99.90;;;;;;5056231;28;20216;-53
2021/10/05 12:30:29;;;;;;;1.40;1.20;;;20.40;99.90;;;;;;5055546;28;20401;-58
2021/10/05 12:32:56;;;;;;;2.10;1.00;;;20.50;99.90;;;;;;5055073;28;20485;-57
2021/10/05 12:35:28;;;;;;;2.07;1.23;;;20.30;99.90;;;;;;5054350;28;20455;-54
2021/10/05 12:38:11;;;;;;;1.30;1.20;;;20.00;99.90;;;;;;5056224;28;20458;-55